Kalgoorlie Boulder Airport
YPKG : now visible

Airfield :











YOU CAN JOIN US ON...

 
LOGIN :

Register | Disclaimer

   EN    FR    IT 

 









Legend :    VFR   Marginal VFR   IFR   Intensive IFR   Very Intensive IFR
Visi :
Ceiling :
>= 8 km
>= 3000ft
5 to 8 km
1000 to 3000 ft
1500m to 5 km
500 to 1000 ft
800 to 1500m
200 to 500 ft
< 800m
< 200 ft
Symbols :   Thunderstorms  Fog  Heavy snow  Heavy precipitations  Wind > 20 kt






- Airport Elevation : 1203 ft
- IATA code : KGI


YPKG - Kalgoorlie Boulder

CURRENT METAR :
  • 241900Z AUTO 27005KT 9999 // NCD 11/11 Q1018 RF00.0/000.0

EXPIRED METARs :
  • 241830Z AUTO 26006KT 9999 // NCD 12/11 Q1018 RF00.0/000.0
  • 241800Z AUTO 27006KT 9999 // NCD 12/11 Q1018 RF00.0/000.0
  • 241730Z AUTO 28005KT 9999 // SCT072 12/11 Q1018 RF00.0/000.0
  • 241700Z AUTO 27004KT 9999 // SCT074 13/11 Q1017 RF00.0/000.0
  • 241630Z AUTO 25006KT 9999 // NCD 13/11 Q1017 RF00.0/000.0

TAF TAF YPKG
Valid from the 24 at 18:00 until the 25 at 18:00 UTC


241722Z 2418/2518 27005KT 9999 FEW040
FM242000 22005KT 9999 SCT020
FM250100 16008KT 9999 SCT040
FM251200 11005KT CAVOK
YMMM FIR / Oceania



MET'MAP, your aeronautical weather chart ! - Copyright ORBIFLY December 2007 - Disclaimer

ORBIFLY MET'MAP TEAM :

Programming & Development : Alexandra Zaïnal
Original concept : Baudouin d'Aumeries
Technical & hardware support : Manuel Goepfert
Assistance : Marc-Olivier Méhu

Contact : metmap@orbifly.com




SOURCES & CREDITS :

   NOAA       Earth
Advisory